sensor_id;sensor_type;location;lat;lon;timestamp;P1;durP1;ratioP1;P2;durP2;ratioP2
65145;SDS011;51730;56.950;24.126;2022-12-07T00:01:34;16.08;;;8.30;;
65145;SDS011;51730;56.950;24.126;2022-12-07T00:04:03;16.13;;;8.80;;
65145;SDS011;51730;56.950;24.126;2022-12-07T00:06:32;17.00;;;8.10;;
65145;SDS011;51730;56.950;24.126;2022-12-07T00:09:00;18.50;;;9.50;;
65145;SDS011;51730;56.950;24.126;2022-12-07T00:11:27;16.13;;;7.75;;
65145;SDS011;51730;56.950;24.126;2022-12-07T00:13:55;13.02;;;7.53;;
65145;SDS011;51730;56.950;24.126;2022-12-07T00:16:24;17.20;;;8.32;;
65145;SDS011;51730;56.950;24.126;2022-12-07T00:18:53;14.52;;;8.15;;
65145;SDS011;51730;56.950;24.126;2022-12-07T00:21:24;18.55;;;8.63;;
65145;SDS011;51730;56.950;24.126;2022-12-07T00:23:56;17.73;;;7.57;;
65145;SDS011;51730;56.950;24.126;2022-12-07T00:26:25;18.90;;;8.35;;
65145;SDS011;51730;56.950;24.126;2022-12-07T00:28:57;15.60;;;8.05;;
65145;SDS011;51730;56.950;24.126;2022-12-07T00:31:27;13.48;;;7.50;;
65145;SDS011;51730;56.950;24.126;2022-12-07T00:33:56;17.63;;;8.13;;
65145;SDS011;51730;56.950;24.126;2022-12-07T00:36:24;15.20;;;7.38;;
65145;SDS011;51730;56.950;24.126;2022-12-07T00:38:53;18.30;;;8.68;;
65145;SDS011;51730;56.950;24.126;2022-12-07T00:41:24;16.27;;;8.32;;
65145;SDS011;51730;56.950;24.126;2022-12-07T00:43:53;15.75;;;7.13;;
65145;SDS011;51730;56.950;24.126;2022-12-07T00:46:21;14.52;;;7.60;;
65145;SDS011;51730;56.950;24.126;2022-12-07T00:48:49;14.13;;;7.53;;
65145;SDS011;51730;56.950;24.126;2022-12-07T00:51:19;16.15;;;7.80;;
65145;SDS011;51730;56.950;24.126;2022-12-07T00:53:47;15.30;;;8.07;;
65145;SDS011;51730;56.950;24.126;2022-12-07T00:59:06;14.55;;;7.75;;
65145;SDS011;51730;56.950;24.126;2022-12-07T01:01:35;14.85;;;7.32;;
65145;SDS011;51730;56.950;24.126;2022-12-07T01:04:03;15.20;;;7.93;;
65145;SDS011;51730;56.950;24.126;2022-12-07T01:06:34;14.82;;;7.53;;
65145;SDS011;51730;56.950;24.126;2022-12-07T01:09:01;11.60;;;6.85;;
65145;SDS011;51730;56.950;24.126;2022-12-07T01:11:29;14.52;;;7.47;;
65145;SDS011;51730;56.950;24.126;2022-12-07T01:13:57;13.32;;;8.15;;
65145;SDS011;51730;56.950;24.126;2022-12-07T01:16:26;14.18;;;7.75;;
65145;SDS011;51730;56.950;24.126;2022-12-07T01:18:55;13.50;;;7.43;;
65145;SDS011;51730;56.950;24.126;2022-12-07T01:21:24;16.95;;;7.75;;
65145;SDS011;51730;56.950;24.126;2022-12-07T01:23:58;15.05;;;8.25;;
65145;SDS011;51730;56.950;24.126;2022-12-07T01:26:26;14.05;;;7.90;;
65145;SDS011;51730;56.950;24.126;2022-12-07T01:28:53;14.70;;;7.35;;
65145;SDS011;51730;56.950;24.126;2022-12-07T01:31:22;15.50;;;8.38;;
65145;SDS011;51730;56.950;24.126;2022-12-07T01:33:52;14.95;;;7.50;;
65145;SDS011;51730;56.950;24.126;2022-12-07T01:38:48;13.57;;;7.43;;
65145;SDS011;51730;56.950;24.126;2022-12-07T01:41:23;12.35;;;7.05;;
65145;SDS011;51730;56.950;24.126;2022-12-07T01:44:08;14.27;;;7.07;;
65145;SDS011;51730;56.950;24.126;2022-12-07T01:46:43;15.18;;;7.85;;
65145;SDS011;51730;56.950;24.126;2022-12-07T01:49:36;12.88;;;6.97;;
65145;SDS011;51730;56.950;24.126;2022-12-07T01:52:15;12.18;;;7.28;;
65145;SDS011;51730;56.950;24.126;2022-12-07T01:54:44;14.90;;;6.65;;
65145;SDS011;51730;56.950;24.126;2022-12-07T01:57:12;16.52;;;7.55;;
65145;SDS011;51730;56.950;24.126;2022-12-07T01:59:43;15.15;;;7.95;;
65145;SDS011;51730;56.950;24.126;2022-12-07T02:02:13;13.35;;;7.32;;
65145;SDS011;51730;56.950;24.126;2022-12-07T02:04:45;16.70;;;7.88;;
65145;SDS011;51730;56.950;24.126;2022-12-07T02:07:13;16.33;;;7.57;;
65145;SDS011;51730;56.950;24.126;2022-12-07T02:09:40;12.75;;;6.70;;
65145;SDS011;51730;56.950;24.126;2022-12-07T02:12:07;14.48;;;7.43;;
65145;SDS011;51730;56.950;24.126;2022-12-07T02:14:34;12.55;;;7.43;;
65145;SDS011;51730;56.950;24.126;2022-12-07T02:31:33;26.60;;;10.82;;
65145;SDS011;51730;56.950;24.126;2022-12-07T02:34:06;23.35;;;9.85;;
65145;SDS011;51730;56.950;24.126;2022-12-07T02:36:39;14.70;;;7.70;;
65145;SDS011;51730;56.950;24.126;2022-12-07T02:39:16;11.95;;;7.25;;
65145;SDS011;51730;56.950;24.126;2022-12-07T02:41:51;13.93;;;8.07;;
65145;SDS011;51730;56.950;24.126;2022-12-07T02:44:23;12.63;;;6.82;;
65145;SDS011;51730;56.950;24.126;2022-12-07T02:46:56;14.10;;;7.20;;
65145;SDS011;51730;56.950;24.126;2022-12-07T02:51:55;11.40;;;6.25;;
65145;SDS011;51730;56.950;24.126;2022-12-07T02:54:22;12.98;;;7.53;;
65145;SDS011;51730;56.950;24.126;2022-12-07T02:56:51;10.80;;;6.97;;
65145;SDS011;51730;56.950;24.126;2022-12-07T03:05:04;13.52;;;6.50;;
65145;SDS011;51730;56.950;24.126;2022-12-07T03:16:16;12.85;;;6.03;;
65145;SDS011;51730;56.950;24.126;2022-12-07T03:18:49;13.90;;;6.95;;
65145;SDS011;51730;56.950;24.126;2022-12-07T03:21:21;11.18;;;6.10;;
65145;SDS011;51730;56.950;24.126;2022-12-07T03:23:56;8.30;;;4.72;;
65145;SDS011;51730;56.950;24.126;2022-12-07T03:26:36;10.95;;;6.03;;
65145;SDS011;51730;56.950;24.126;2022-12-07T03:29:09;11.57;;;6.07;;
65145;SDS011;51730;56.950;24.126;2022-12-07T03:31:43;8.73;;;5.53;;
65145;SDS011;51730;56.950;24.126;2022-12-07T03:34:25;12.32;;;6.55;;
65145;SDS011;51730;56.950;24.126;2022-12-07T03:37:10;11.68;;;5.50;;
65145;SDS011;51730;56.950;24.126;2022-12-07T03:42:44;11.70;;;5.55;;
65145;SDS011;51730;56.950;24.126;2022-12-07T03:45:12;15.48;;;7.05;;
65145;SDS011;51730;56.950;24.126;2022-12-07T03:48:01;12.07;;;6.35;;
65145;SDS011;51730;56.950;24.126;2022-12-07T03:50:55;9.93;;;5.93;;
65145;SDS011;51730;56.950;24.126;2022-12-07T03:53:51;10.60;;;5.70;;
65145;SDS011;51730;56.950;24.126;2022-12-07T03:56:35;8.65;;;5.28;;
65145;SDS011;51730;56.950;24.126;2022-12-07T03:59:05;10.30;;;6.13;;
65145;SDS011;51730;56.950;24.126;2022-12-07T04:01:34;11.57;;;5.90;;
65145;SDS011;51730;56.950;24.126;2022-12-07T04:04:01;10.82;;;6.03;;
65145;SDS011;51730;56.950;24.126;2022-12-07T04:06:30;7.93;;;5.13;;
65145;SDS011;51730;56.950;24.126;2022-12-07T04:08:57;11.68;;;5.57;;
65145;SDS011;51730;56.950;24.126;2022-12-07T04:11:24;11.35;;;6.00;;
65145;SDS011;51730;56.950;24.126;2022-12-07T04:13:51;10.57;;;5.10;;
65145;SDS011;51730;56.950;24.126;2022-12-07T04:16:36;11.20;;;5.70;;
65145;SDS011;51730;56.950;24.126;2022-12-07T04:19:09;11.75;;;6.13;;
65145;SDS011;51730;56.950;24.126;2022-12-07T04:21:39;10.95;;;5.65;;
65145;SDS011;51730;56.950;24.126;2022-12-07T04:24:08;11.88;;;6.00;;
65145;SDS011;51730;56.950;24.126;2022-12-07T04:26:37;12.00;;;6.72;;
65145;SDS011;51730;56.950;24.126;2022-12-07T04:29:07;9.63;;;5.43;;
65145;SDS011;51730;56.950;24.126;2022-12-07T04:31:36;10.07;;;5.47;;
65145;SDS011;51730;56.950;24.126;2022-12-07T04:34:03;10.45;;;6.10;;
65145;SDS011;51730;56.950;24.126;2022-12-07T04:36:31;11.75;;;6.45;;
65145;SDS011;51730;56.950;24.126;2022-12-07T04:38:59;10.07;;;5.72;;
65145;SDS011;51730;56.950;24.126;2022-12-07T04:41:26;11.60;;;6.43;;
65145;SDS011;51730;56.950;24.126;2022-12-07T04:43:54;9.45;;;5.75;;
65145;SDS011;51730;56.950;24.126;2022-12-07T04:46:29;10.65;;;5.60;;
65145;SDS011;51730;56.950;24.126;2022-12-07T04:48:58;9.65;;;5.82;;
65145;SDS011;51730;56.950;24.126;2022-12-07T04:51:26;12.13;;;6.35;;
65145;SDS011;51730;56.950;24.126;2022-12-07T04:53:55;11.32;;;6.43;;
65145;SDS011;51730;56.950;24.126;2022-12-07T04:56:22;11.00;;;6.65;;
65145;SDS011;51730;56.950;24.126;2022-12-07T04:58:53;11.02;;;6.03;;
65145;SDS011;51730;56.950;24.126;2022-12-07T05:01:21;11.63;;;6.70;;
65145;SDS011;51730;56.950;24.126;2022-12-07T05:03:49;10.35;;;5.65;;
65145;SDS011;51730;56.950;24.126;2022-12-07T05:06:16;10.88;;;5.78;;
65145;SDS011;51730;56.950;24.126;2022-12-07T05:08:43;12.93;;;5.93;;
65145;SDS011;51730;56.950;24.126;2022-12-07T05:11:11;11.93;;;6.35;;
65145;SDS011;51730;56.950;24.126;2022-12-07T05:13:58;10.90;;;6.30;;
65145;SDS011;51730;56.950;24.126;2022-12-07T05:16:25;12.52;;;6.00;;
65145;SDS011;51730;56.950;24.126;2022-12-07T05:18:53;10.63;;;6.40;;
65145;SDS011;51730;56.950;24.126;2022-12-07T05:21:20;10.07;;;6.32;;
65145;SDS011;51730;56.950;24.126;2022-12-07T05:23:47;13.90;;;6.65;;
65145;SDS011;51730;56.950;24.126;2022-12-07T05:26:14;13.45;;;7.38;;
65145;SDS011;51730;56.950;24.126;2022-12-07T05:28:41;11.50;;;6.72;;
65145;SDS011;51730;56.950;24.126;2022-12-07T05:31:08;11.32;;;6.88;;
65145;SDS011;51730;56.950;24.126;2022-12-07T05:33:35;12.27;;;6.80;;
65145;SDS011;51730;56.950;24.126;2022-12-07T05:36:02;14.85;;;6.68;;
65145;SDS011;51730;56.950;24.126;2022-12-07T05:38:33;12.98;;;7.00;;
65145;SDS011;51730;56.950;24.126;2022-12-07T05:41:03;15.27;;;7.38;;
65145;SDS011;51730;56.950;24.126;2022-12-07T05:43:32;17.65;;;9.98;;
65145;SDS011;51730;56.950;24.126;2022-12-07T05:45:59;16.52;;;8.00;;
65145;SDS011;51730;56.950;24.126;2022-12-07T05:48:26;14.75;;;7.15;;
65145;SDS011;51730;56.950;24.126;2022-12-07T05:50:55;13.38;;;6.78;;
65145;SDS011;51730;56.950;24.126;2022-12-07T05:53:22;15.10;;;7.90;;
65145;SDS011;51730;56.950;24.126;2022-12-07T05:55:50;15.27;;;7.00;;
65145;SDS011;51730;56.950;24.126;2022-12-07T05:58:19;14.98;;;7.68;;
65145;SDS011;51730;56.950;24.126;2022-12-07T06:01:04;16.20;;;8.38;;
65145;SDS011;51730;56.950;24.126;2022-12-07T06:03:31;13.40;;;7.10;;
65145;SDS011;51730;56.950;24.126;2022-12-07T06:05:58;16.77;;;8.43;;
65145;SDS011;51730;56.950;24.126;2022-12-07T06:08:25;11.93;;;7.20;;
65145;SDS011;51730;56.950;24.126;2022-12-07T06:10:53;14.02;;;7.25;;
65145;SDS011;51730;56.950;24.126;2022-12-07T06:13:42;16.98;;;7.80;;
65145;SDS011;51730;56.950;24.126;2022-12-07T06:16:12;12.95;;;6.72;;
65145;SDS011;51730;56.950;24.126;2022-12-07T06:18:39;17.08;;;8.27;;
65145;SDS011;51730;56.950;24.126;2022-12-07T06:21:07;14.10;;;6.95;;
65145;SDS011;51730;56.950;24.126;2022-12-07T06:23:34;13.65;;;7.30;;
65145;SDS011;51730;56.950;24.126;2022-12-07T06:26:01;14.23;;;6.95;;
65145;SDS011;51730;56.950;24.126;2022-12-07T06:28:28;14.02;;;7.35;;
65145;SDS011;51730;56.950;24.126;2022-12-07T06:30:59;12.98;;;7.00;;
65145;SDS011;51730;56.950;24.126;2022-12-07T06:33:29;15.52;;;7.75;;
65145;SDS011;51730;56.950;24.126;2022-12-07T06:35:56;14.55;;;7.40;;
65145;SDS011;51730;56.950;24.126;2022-12-07T06:38:23;12.68;;;7.20;;
65145;SDS011;51730;56.950;24.126;2022-12-07T06:40:51;14.10;;;7.82;;
65145;SDS011;51730;56.950;24.126;2022-12-07T06:43:17;15.82;;;7.78;;
65145;SDS011;51730;56.950;24.126;2022-12-07T06:45:44;13.93;;;7.65;;
65145;SDS011;51730;56.950;24.126;2022-12-07T06:48:12;16.60;;;8.15;;
65145;SDS011;51730;56.950;24.126;2022-12-07T06:50:44;18.38;;;8.07;;
65145;SDS011;51730;56.950;24.126;2022-12-07T06:53:19;15.27;;;7.70;;
65145;SDS011;51730;56.950;24.126;2022-12-07T06:55:47;13.88;;;7.10;;
65145;SDS011;51730;56.950;24.126;2022-12-07T06:58:14;12.63;;;7.40;;
65145;SDS011;51730;56.950;24.126;2022-12-07T07:00:42;15.88;;;8.25;;
65145;SDS011;51730;56.950;24.126;2022-12-07T07:03:09;12.85;;;6.75;;
65145;SDS011;51730;56.950;24.126;2022-12-07T07:05:36;17.13;;;8.48;;
65145;SDS011;51730;56.950;24.126;2022-12-07T07:08:06;26.17;;;12.30;;
65145;SDS011;51730;56.950;24.126;2022-12-07T07:10:49;13.13;;;7.07;;
65145;SDS011;51730;56.950;24.126;2022-12-07T07:13:16;15.10;;;7.35;;
65145;SDS011;51730;56.950;24.126;2022-12-07T07:15:46;16.25;;;7.78;;
65145;SDS011;51730;56.950;24.126;2022-12-07T07:18:13;15.82;;;8.02;;
65145;SDS011;51730;56.950;24.126;2022-12-07T07:20:39;14.27;;;7.47;;
65145;SDS011;51730;56.950;24.126;2022-12-07T07:23:06;15.52;;;8.00;;
65145;SDS011;51730;56.950;24.126;2022-12-07T07:25:33;14.18;;;7.70;;
65145;SDS011;51730;56.950;24.126;2022-12-07T07:28:00;15.52;;;7.53;;
65145;SDS011;51730;56.950;24.126;2022-12-07T07:30:27;14.63;;;8.23;;
65145;SDS011;51730;56.950;24.126;2022-12-07T07:32:58;14.98;;;8.35;;
65145;SDS011;51730;56.950;24.126;2022-12-07T07:37:54;13.48;;;8.02;;
65145;SDS011;51730;56.950;24.126;2022-12-07T07:40:21;18.27;;;7.82;;
65145;SDS011;51730;56.950;24.126;2022-12-07T07:42:50;17.15;;;9.07;;
65145;SDS011;51730;56.950;24.126;2022-12-07T07:45:18;17.48;;;8.48;;
65145;SDS011;51730;56.950;24.126;2022-12-07T07:47:47;17.77;;;8.70;;
65145;SDS011;51730;56.950;24.126;2022-12-07T07:50:15;22.17;;;10.32;;
65145;SDS011;51730;56.950;24.126;2022-12-07T07:52:43;18.73;;;9.48;;
65145;SDS011;51730;56.950;24.126;2022-12-07T07:55:10;12.35;;;7.47;;
65145;SDS011;51730;56.950;24.126;2022-12-07T07:57:39;15.35;;;7.78;;
65145;SDS011;51730;56.950;24.126;2022-12-07T08:00:08;16.15;;;6.85;;
65145;SDS011;51730;56.950;24.126;2022-12-07T08:02:40;23.65;;;11.57;;
65145;SDS011;51730;56.950;24.126;2022-12-07T08:05:10;14.88;;;7.35;;
65145;SDS011;51730;56.950;24.126;2022-12-07T08:07:38;17.08;;;8.48;;
65145;SDS011;51730;56.950;24.126;2022-12-07T08:10:06;15.43;;;7.60;;
65145;SDS011;51730;56.950;24.126;2022-12-07T08:12:36;12.90;;;7.22;;
65145;SDS011;51730;56.950;24.126;2022-12-07T08:15:24;15.30;;;7.82;;
65145;SDS011;51730;56.950;24.126;2022-12-07T08:17:52;14.00;;;7.90;;
65145;SDS011;51730;56.950;24.126;2022-12-07T08:20:20;11.80;;;6.93;;
65145;SDS011;51730;56.950;24.126;2022-12-07T08:22:47;13.57;;;7.00;;
65145;SDS011;51730;56.950;24.126;2022-12-07T08:25:14;14.23;;;7.38;;
65145;SDS011;51730;56.950;24.126;2022-12-07T08:27:40;11.82;;;6.95;;
65145;SDS011;51730;56.950;24.126;2022-12-07T08:30:07;12.75;;;7.25;;
65145;SDS011;51730;56.950;24.126;2022-12-07T08:32:34;13.73;;;7.05;;
65145;SDS011;51730;56.950;24.126;2022-12-07T08:35:01;14.25;;;6.95;;
65145;SDS011;51730;56.950;24.126;2022-12-07T08:37:28;13.95;;;7.65;;
65145;SDS011;51730;56.950;24.126;2022-12-07T08:39:55;12.60;;;6.90;;
65145;SDS011;51730;56.950;24.126;2022-12-07T08:42:22;12.50;;;7.22;;
65145;SDS011;51730;56.950;24.126;2022-12-07T08:44:56;15.35;;;7.07;;
65145;SDS011;51730;56.950;24.126;2022-12-07T08:47:24;12.13;;;7.35;;
65145;SDS011;51730;56.950;24.126;2022-12-07T08:49:51;14.07;;;7.78;;
65145;SDS011;51730;56.950;24.126;2022-12-07T08:52:20;12.65;;;6.13;;
65145;SDS011;51730;56.950;24.126;2022-12-07T08:54:47;26.80;;;13.80;;
65145;SDS011;51730;56.950;24.126;2022-12-07T08:57:15;15.05;;;7.95;;
65145;SDS011;51730;56.950;24.126;2022-12-07T08:59:42;15.45;;;6.95;;
65145;SDS011;51730;56.950;24.126;2022-12-07T09:02:09;14.55;;;7.50;;
65145;SDS011;51730;56.950;24.126;2022-12-07T09:04:36;16.92;;;8.30;;
65145;SDS011;51730;56.950;24.126;2022-12-07T09:07:03;13.45;;;6.93;;
65145;SDS011;51730;56.950;24.126;2022-12-07T09:09:30;15.60;;;7.32;;
65145;SDS011;51730;56.950;24.126;2022-12-07T09:11:58;12.82;;;6.72;;
65145;SDS011;51730;56.950;24.126;2022-12-07T09:14:25;14.98;;;8.02;;
65145;SDS011;51730;56.950;24.126;2022-12-07T09:16:52;24.13;;;9.25;;
65145;SDS011;51730;56.950;24.126;2022-12-07T09:19:19;16.15;;;8.25;;
65145;SDS011;51730;56.950;24.126;2022-12-07T09:21:46;12.70;;;6.90;;
65145;SDS011;51730;56.950;24.126;2022-12-07T09:24:13;12.23;;;6.75;;
65145;SDS011;51730;56.950;24.126;2022-12-07T09:26:40;12.63;;;7.10;;
65145;SDS011;51730;56.950;24.126;2022-12-07T09:29:07;13.73;;;6.60;;
65145;SDS011;51730;56.950;24.126;2022-12-07T09:31:35;13.13;;;7.07;;
65145;SDS011;51730;56.950;24.126;2022-12-07T09:34:03;12.40;;;7.05;;
65145;SDS011;51730;56.950;24.126;2022-12-07T09:36:32;12.82;;;6.57;;
65145;SDS011;51730;56.950;24.126;2022-12-07T09:38:59;13.45;;;6.88;;
65145;SDS011;51730;56.950;24.126;2022-12-07T09:41:29;16.15;;;7.80;;
65145;SDS011;51730;56.950;24.126;2022-12-07T09:44:09;12.00;;;7.18;;
65145;SDS011;51730;56.950;24.126;2022-12-07T09:46:39;11.60;;;6.80;;
65145;SDS011;51730;56.950;24.126;2022-12-07T09:49:11;13.00;;;6.15;;
65145;SDS011;51730;56.950;24.126;2022-12-07T09:51:42;13.13;;;6.10;;
65145;SDS011;51730;56.950;24.126;2022-12-07T09:54:11;11.80;;;6.68;;
65145;SDS011;51730;56.950;24.126;2022-12-07T09:56:40;12.43;;;6.47;;
65145;SDS011;51730;56.950;24.126;2022-12-07T09:59:16;12.88;;;6.68;;
65145;SDS011;51730;56.950;24.126;2022-12-07T10:01:47;11.10;;;5.97;;
65145;SDS011;51730;56.950;24.126;2022-12-07T10:04:17;12.93;;;6.88;;
65145;SDS011;51730;56.950;24.126;2022-12-07T10:06:49;12.75;;;6.82;;
65145;SDS011;51730;56.950;24.126;2022-12-07T10:09:21;18.77;;;9.15;;
65145;SDS011;51730;56.950;24.126;2022-12-07T10:12:01;18.73;;;6.97;;
65145;SDS011;51730;56.950;24.126;2022-12-07T10:14:30;17.35;;;8.73;;
65145;SDS011;51730;56.950;24.126;2022-12-07T10:23:04;18.27;;;8.43;;
65145;SDS011;51730;56.950;24.126;2022-12-07T10:25:39;12.90;;;7.03;;
65145;SDS011;51730;56.950;24.126;2022-12-07T10:31:15;12.18;;;7.15;;
65145;SDS011;51730;56.950;24.126;2022-12-07T10:33:51;14.73;;;6.07;;
65145;SDS011;51730;56.950;24.126;2022-12-07T10:36:24;12.02;;;6.70;;
65145;SDS011;51730;56.950;24.126;2022-12-07T10:39:14;11.88;;;6.95;;
65145;SDS011;51730;56.950;24.126;2022-12-07T10:41:57;11.20;;;6.07;;
65145;SDS011;51730;56.950;24.126;2022-12-07T10:44:29;11.38;;;6.30;;
65145;SDS011;51730;56.950;24.126;2022-12-07T10:52:29;11.05;;;5.95;;
65145;SDS011;51730;56.950;24.126;2022-12-07T11:11:38;14.25;;;7.60;;
65145;SDS011;51730;56.950;24.126;2022-12-07T11:14:36;12.20;;;6.80;;
65145;SDS011;51730;56.950;24.126;2022-12-07T11:17:18;17.65;;;8.80;;
65145;SDS011;51730;56.950;24.126;2022-12-07T11:20:01;13.18;;;7.13;;
65145;SDS011;51730;56.950;24.126;2022-12-07T11:31:12;18.10;;;8.40;;
65145;SDS011;51730;56.950;24.126;2022-12-07T11:36:46;13.70;;;7.03;;
65145;SDS011;51730;56.950;24.126;2022-12-07T11:42:09;12.02;;;6.72;;
65145;SDS011;51730;56.950;24.126;2022-12-07T11:44:48;13.18;;;6.65;;
65145;SDS011;51730;56.950;24.126;2022-12-07T11:47:30;14.48;;;7.05;;
65145;SDS011;51730;56.950;24.126;2022-12-07T11:59:04;12.45;;;6.55;;
65145;SDS011;51730;56.950;24.126;2022-12-07T12:06:37;18.45;;;8.50;;
65145;SDS011;51730;56.950;24.126;2022-12-07T12:21:10;19.15;;;8.15;;
65145;SDS011;51730;56.950;24.126;2022-12-07T12:26:25;15.38;;;7.97;;
65145;SDS011;51730;56.950;24.126;2022-12-07T12:28:57;13.48;;;6.57;;
65145;SDS011;51730;56.950;24.126;2022-12-07T12:33:56;12.55;;;6.97;;
65145;SDS011;51730;56.950;24.126;2022-12-07T12:36:43;12.20;;;7.53;;
65145;SDS011;51730;56.950;24.126;2022-12-07T12:47:00;16.88;;;7.90;;
65145;SDS011;51730;56.950;24.126;2022-12-07T12:53:16;16.65;;;7.70;;
65145;SDS011;51730;56.950;24.126;2022-12-07T12:55:53;14.15;;;7.72;;
65145;SDS011;51730;56.950;24.126;2022-12-07T12:58:31;16.88;;;8.50;;
65145;SDS011;51730;56.950;24.126;2022-12-07T13:03:58;16.67;;;8.50;;
65145;SDS011;51730;56.950;24.126;2022-12-07T13:08:53;30.70;;;14.63;;
65145;SDS011;51730;56.950;24.126;2022-12-07T13:13:56;15.52;;;8.50;;
65145;SDS011;51730;56.950;24.126;2022-12-07T13:17:04;15.27;;;8.30;;
65145;SDS011;51730;56.950;24.126;2022-12-07T13:20:39;14.32;;;8.23;;
65145;SDS011;51730;56.950;24.126;2022-12-07T13:23:59;20.42;;;9.85;;
65145;SDS011;51730;56.950;24.126;2022-12-07T13:27:17;16.58;;;8.68;;
65145;SDS011;51730;56.950;24.126;2022-12-07T13:30:27;15.93;;;7.60;;
65145;SDS011;51730;56.950;24.126;2022-12-07T13:33:44;14.98;;;7.57;;
65145;SDS011;51730;56.950;24.126;2022-12-07T13:36:43;18.30;;;9.45;;
65145;SDS011;51730;56.950;24.126;2022-12-07T13:39:51;20.05;;;9.23;;
65145;SDS011;51730;56.950;24.126;2022-12-07T13:43:17;18.27;;;9.43;;
65145;SDS011;51730;56.950;24.126;2022-12-07T13:45:45;21.48;;;11.30;;
65145;SDS011;51730;56.950;24.126;2022-12-07T13:48:31;19.15;;;9.20;;
65145;SDS011;51730;56.950;24.126;2022-12-07T13:51:01;15.77;;;8.50;;
65145;SDS011;51730;56.950;24.126;2022-12-07T13:53:45;28.23;;;13.48;;
65145;SDS011;51730;56.950;24.126;2022-12-07T13:56:16;20.42;;;10.05;;
65145;SDS011;51730;56.950;24.126;2022-12-07T13:58:43;17.48;;;9.23;;
65145;SDS011;51730;56.950;24.126;2022-12-07T14:01:10;21.88;;;10.25;;
65145;SDS011;51730;56.950;24.126;2022-12-07T14:03:39;17.42;;;9.30;;
65145;SDS011;51730;56.950;24.126;2022-12-07T14:06:11;17.25;;;9.77;;
65145;SDS011;51730;56.950;24.126;2022-12-07T14:08:42;18.40;;;8.40;;
65145;SDS011;51730;56.950;24.126;2022-12-07T14:11:14;14.57;;;8.35;;
65145;SDS011;51730;56.950;24.126;2022-12-07T14:13:47;15.52;;;8.68;;
65145;SDS011;51730;56.950;24.126;2022-12-07T14:16:31;18.42;;;9.25;;
65145;SDS011;51730;56.950;24.126;2022-12-07T14:19:03;17.02;;;8.90;;
65145;SDS011;51730;56.950;24.126;2022-12-07T14:21:33;18.27;;;9.48;;
65145;SDS011;51730;56.950;24.126;2022-12-07T14:24:08;16.50;;;9.00;;
65145;SDS011;51730;56.950;24.126;2022-12-07T14:26:47;21.73;;;9.52;;
65145;SDS011;51730;56.950;24.126;2022-12-07T14:29:18;18.90;;;9.98;;
65145;SDS011;51730;56.950;24.126;2022-12-07T14:32:46;18.00;;;9.85;;
65145;SDS011;51730;56.950;24.126;2022-12-07T14:34:57;17.13;;;9.40;;
65145;SDS011;51730;56.950;24.126;2022-12-07T14:37:27;16.98;;;9.93;;
65145;SDS011;51730;56.950;24.126;2022-12-07T14:39:56;19.23;;;9.68;;
65145;SDS011;51730;56.950;24.126;2022-12-07T14:42:23;22.15;;;11.45;;
65145;SDS011;51730;56.950;24.126;2022-12-07T14:44:55;19.95;;;10.63;;
65145;SDS011;51730;56.950;24.126;2022-12-07T14:47:24;18.50;;;9.80;;
65145;SDS011;51730;56.950;24.126;2022-12-07T14:50:16;19.10;;;10.05;;
65145;SDS011;51730;56.950;24.126;2022-12-07T14:53:09;20.58;;;10.30;;
65145;SDS011;51730;56.950;24.126;2022-12-07T14:55:51;21.35;;;10.63;;
65145;SDS011;51730;56.950;24.126;2022-12-07T14:58:19;23.23;;;11.25;;
65145;SDS011;51730;56.950;24.126;2022-12-07T15:00:46;17.50;;;9.05;;
65145;SDS011;51730;56.950;24.126;2022-12-07T15:03:15;16.88;;;8.75;;
65145;SDS011;51730;56.950;24.126;2022-12-07T15:05:42;19.83;;;9.75;;
65145;SDS011;51730;56.950;24.126;2022-12-07T15:08:11;18.85;;;9.88;;
65145;SDS011;51730;56.950;24.126;2022-12-07T15:10:40;17.52;;;10.10;;
65145;SDS011;51730;56.950;24.126;2022-12-07T15:13:10;20.10;;;10.20;;
65145;SDS011;51730;56.950;24.126;2022-12-07T15:15:55;17.67;;;9.07;;
65145;SDS011;51730;56.950;24.126;2022-12-07T15:18:23;16.58;;;8.70;;
65145;SDS011;51730;56.950;24.126;2022-12-07T15:20:50;16.08;;;9.13;;
65145;SDS011;51730;56.950;24.126;2022-12-07T15:23:17;14.88;;;8.23;;
65145;SDS011;51730;56.950;24.126;2022-12-07T15:25:45;19.73;;;9.50;;
65145;SDS011;51730;56.950;24.126;2022-12-07T15:28:14;18.77;;;10.02;;
65145;SDS011;51730;56.950;24.126;2022-12-07T15:30:41;22.27;;;10.25;;
65145;SDS011;51730;56.950;24.126;2022-12-07T15:33:10;25.73;;;11.15;;
65145;SDS011;51730;56.950;24.126;2022-12-07T15:35:40;18.17;;;9.93;;
65145;SDS011;51730;56.950;24.126;2022-12-07T15:38:11;23.88;;;11.63;;
65145;SDS011;51730;56.950;24.126;2022-12-07T15:40:39;17.55;;;9.30;;
65145;SDS011;51730;56.950;24.126;2022-12-07T15:43:09;21.38;;;10.73;;
65145;SDS011;51730;56.950;24.126;2022-12-07T15:45:56;17.35;;;9.80;;
65145;SDS011;51730;56.950;24.126;2022-12-07T15:48:29;12.35;;;6.80;;
65145;SDS011;51730;56.950;24.126;2022-12-07T15:51:19;16.88;;;7.75;;
65145;SDS011;51730;56.950;24.126;2022-12-07T15:53:50;25.63;;;11.20;;
65145;SDS011;51730;56.950;24.126;2022-12-07T15:56:17;20.48;;;10.73;;
65145;SDS011;51730;56.950;24.126;2022-12-07T15:58:43;19.77;;;10.43;;
65145;SDS011;51730;56.950;24.126;2022-12-07T16:01:14;19.20;;;9.70;;
65145;SDS011;51730;56.950;24.126;2022-12-07T16:03:43;18.52;;;9.43;;
65145;SDS011;51730;56.950;24.126;2022-12-07T16:06:10;17.70;;;8.80;;
65145;SDS011;51730;56.950;24.126;2022-12-07T16:08:41;20.85;;;10.13;;
65145;SDS011;51730;56.950;24.126;2022-12-07T16:13:37;22.08;;;10.73;;
65145;SDS011;51730;56.950;24.126;2022-12-07T16:16:14;14.77;;;8.80;;
65145;SDS011;51730;56.950;24.126;2022-12-07T16:19:01;17.60;;;10.00;;
65145;SDS011;51730;56.950;24.126;2022-12-07T16:21:29;20.00;;;10.07;;
65145;SDS011;51730;56.950;24.126;2022-12-07T16:23:57;17.80;;;9.57;;
65145;SDS011;51730;56.950;24.126;2022-12-07T16:26:25;17.67;;;9.40;;
65145;SDS011;51730;56.950;24.126;2022-12-07T16:28:54;15.15;;;8.95;;
65145;SDS011;51730;56.950;24.126;2022-12-07T16:31:26;12.18;;;7.50;;
65145;SDS011;51730;56.950;24.126;2022-12-07T16:33:54;21.10;;;11.57;;
65145;SDS011;51730;56.950;24.126;2022-12-07T16:36:23;20.13;;;9.70;;
65145;SDS011;51730;56.950;24.126;2022-12-07T16:39:11;15.77;;;8.75;;
65145;SDS011;51730;56.950;24.126;2022-12-07T16:41:38;18.23;;;8.82;;
65145;SDS011;51730;56.950;24.126;2022-12-07T16:44:07;16.55;;;8.85;;
65145;SDS011;51730;56.950;24.126;2022-12-07T16:46:37;16.98;;;9.07;;
65145;SDS011;51730;56.950;24.126;2022-12-07T16:49:12;18.70;;;10.70;;
65145;SDS011;51730;56.950;24.126;2022-12-07T16:51:40;20.05;;;9.05;;
65145;SDS011;51730;56.950;24.126;2022-12-07T16:54:10;17.75;;;9.07;;
65145;SDS011;51730;56.950;24.126;2022-12-07T16:56:38;20.52;;;9.63;;
65145;SDS011;51730;56.950;24.126;2022-12-07T16:59:05;16.50;;;9.05;;
65145;SDS011;51730;56.950;24.126;2022-12-07T17:01:32;14.00;;;8.55;;
65145;SDS011;51730;56.950;24.126;2022-12-07T17:04:00;16.90;;;8.27;;
65145;SDS011;51730;56.950;24.126;2022-12-07T17:06:29;17.88;;;8.80;;
65145;SDS011;51730;56.950;24.126;2022-12-07T17:08:58;18.80;;;8.98;;
65145;SDS011;51730;56.950;24.126;2022-12-07T17:11:28;14.77;;;8.68;;